Watson, Illinois
Current Conditions -  °F | °C
As of 8:55 PM on Friday 21 Nov 2014 (Local Time) from K1H2 Reporting Station
Overcast Overcast  
Wind Chill: 30°   Ceiling: 2400
Heat Index: 37°   Visibility: NA
Dew Point: 17°   Wind: 10mph
Humidity: 45%   Direction: 140°SE
Pressure: 30.31"   Gusts: NA
Location:  39.03°N, 88.57°W
Report Text: K1H2 220255Z AUTO 14009KT OVC024 03/M08 A3031 RMK AO2 T00271082 PWINO
Loading
Personal Weather Stations






























Interactive Weather Map New forecast layout! Learn more

10-Day Weather Forecast

Advertisements
Track Severe Weather on mobile